createdAt,value
2018-04-06T00:01:44.428Z,95507.70
2018-04-06T00:04:47.693Z,95515.58
2018-04-06T00:07:51.699Z,95513.03
2018-04-06T00:10:54.977Z,95515.75
2018-04-06T00:13:58.258Z,95523.57
2018-04-06T00:17:01.888Z,95521.73
2018-04-06T00:20:05.418Z,95516.73
2018-04-06T00:23:09.414Z,95519.06
2018-04-06T00:26:13.438Z,95518.16
2018-04-06T00:29:17.455Z,95520.80
2018-04-06T00:32:21.465Z,95518.35
2018-04-06T00:35:25.482Z,95512.19
2018-04-06T00:38:30.220Z,95509.27
2018-04-06T00:41:34.243Z,95505.84
2018-04-06T00:44:37.507Z,95514.31
2018-04-06T00:47:40.784Z,95518.81
2018-04-06T00:50:44.066Z,95517.00
2018-04-06T00:53:48.229Z,95514.70
2018-04-06T00:56:52.398Z,95505.63
2018-04-06T00:59:55.654Z,95497.82
2018-04-06T01:02:59.659Z,95507.14
2018-04-06T01:06:02.927Z,95516.83
2018-04-06T01:09:07.107Z,95518.91
2018-04-06T01:12:10.369Z,95514.55
2018-04-06T01:15:13.623Z,95515.84
2018-04-06T01:18:16.878Z,95498.95
2018-04-06T01:21:20.891Z,95497.98
2018-04-06T01:24:24.919Z,95508.94
2018-04-06T01:31:01.602Z,95507.33
2018-04-06T01:34:05.623Z,95503.84
2018-04-06T01:37:09.636Z,95505.30
2018-04-06T01:40:13.657Z,95509.95
2018-04-06T01:43:17.161Z,95508.04
2018-04-06T01:46:21.351Z,95500.26
2018-04-06T01:49:24.603Z,95500.39
2018-04-06T01:52:27.859Z,95505.73
2018-04-06T01:55:31.876Z,95507.97
2018-04-06T01:58:35.887Z,95503.51
2018-04-06T02:01:39.895Z,95499.73
2018-04-06T02:04:43.158Z,95496.67
2018-04-06T02:07:46.410Z,95501.10
2018-04-06T02:10:49.680Z,95499.75
2018-04-06T02:13:52.960Z,95499.27
2018-04-06T02:16:56.209Z,95496.95
2018-04-06T02:19:59.472Z,95497.17
2018-04-06T02:23:02.734Z,95503.98
2018-04-06T02:26:05.993Z,95498.62
2018-04-06T02:29:10.051Z,95495.30
2018-04-06T02:32:13.308Z,95499.12
2018-04-06T02:35:16.611Z,95496.50
2018-04-06T02:38:19.853Z,95494.84
2018-04-06T02:41:23.124Z,95487.61
2018-04-06T02:44:26.367Z,95492.30
2018-04-06T02:47:29.622Z,95497.99
2018-04-06T02:50:32.865Z,95500.00
2018-04-06T02:53:36.192Z,95501.72
2018-04-06T02:56:40.219Z,95499.38
2018-04-06T02:59:43.472Z,95494.17
2018-04-06T03:02:46.704Z,95505.63
2018-04-06T03:05:50.272Z,95500.38
2018-04-06T03:08:53.523Z,95495.33
2018-04-06T03:11:56.770Z,95496.94
2018-04-06T03:15:00.795Z,95496.67
2018-04-06T03:18:04.798Z,95494.57
2018-04-06T03:21:08.051Z,95494.47
2018-04-06T03:24:11.307Z,95489.93
2018-04-06T03:27:15.318Z,95491.34
2018-04-06T03:30:19.341Z,95490.84
2018-04-06T03:33:23.345Z,95491.53
2018-04-06T03:36:27.370Z,95498.61
2018-04-06T03:39:31.375Z,95491.94
2018-04-06T03:42:35.393Z,95487.77
2018-04-06T03:45:39.425Z,95493.80
2018-04-06T03:48:42.675Z,95495.38
2018-04-06T03:51:45.939Z,95490.91
2018-04-06T03:54:49.224Z,95486.05
2018-04-06T03:57:52.495Z,95481.51
2018-04-06T04:00:56.620Z,95492.52
2018-04-06T04:04:00.749Z,95474.56
2018-04-06T04:07:04.325Z,95478.27
2018-04-06T04:10:08.367Z,95476.44
2018-04-06T04:13:11.618Z,95478.26
2018-04-06T04:16:14.872Z,95479.43
2018-04-06T04:19:18.111Z,95477.75
2018-04-06T04:22:21.363Z,95483.09
2018-04-06T04:25:24.648Z,95477.88
2018-04-06T04:28:27.894Z,95480.88
2018-04-06T04:31:31.146Z,95475.76
2018-04-06T04:34:34.410Z,95478.12
2018-04-06T04:37:40.985Z,95482.69
2018-04-06T04:40:45.043Z,95478.77
2018-04-06T04:43:48.324Z,95481.65
2018-04-06T04:46:51.590Z,95486.91
2018-04-06T04:49:54.827Z,95488.20
2018-04-06T04:52:58.091Z,95486.92
2018-04-06T04:56:01.350Z,95487.81
2018-04-06T04:59:04.596Z,95496.09
2018-04-06T05:02:08.625Z,95495.02
2018-04-06T05:05:12.138Z,95491.88
2018-04-06T05:08:15.439Z,95493.19
2018-04-06T05:11:18.695Z,95488.36
2018-04-06T05:14:21.965Z,95494.89
2018-04-06T05:17:25.228Z,95494.89
2018-04-06T05:20:28.501Z,95485.61
2018-04-06T05:23:32.512Z,95490.69
2018-04-06T05:26:36.646Z,95495.41
2018-04-06T05:29:39.896Z,95488.50
2018-04-06T05:32:43.138Z,95485.44
2018-04-06T05:35:46.396Z,95490.56
2018-04-06T05:38:49.778Z,95495.42
2018-04-06T05:41:53.117Z,95491.72
2018-04-06T05:44:57.144Z,95492.73
2018-04-06T05:48:00.404Z,95499.92
2018-04-06T05:51:03.674Z,95496.87
2018-04-06T05:54:06.920Z,95498.43
2018-04-06T05:57:10.932Z,95495.70
2018-04-06T06:00:14.949Z,95501.28
2018-04-06T06:03:18.221Z,95497.82
2018-04-06T06:06:21.562Z,95501.84
2018-04-06T06:09:26.728Z,95500.77
2018-04-06T06:12:30.194Z,95502.55
2018-04-06T06:15:34.216Z,95500.73
2018-04-06T06:18:37.468Z,95497.16
2018-04-06T06:21:40.717Z,95496.12
2018-04-06T06:24:43.974Z,95504.34
2018-04-06T06:27:47.226Z,95497.75
2018-04-06T06:30:50.798Z,95503.00
2018-04-06T06:33:54.055Z,95507.21
2018-04-06T06:36:57.303Z,95502.20
2018-04-06T06:40:01.317Z,95505.06
2018-04-06T06:43:05.350Z,95502.52
2018-04-06T06:46:09.556Z,95499.05
2018-04-06T06:49:13.579Z,95506.16
2018-04-06T06:52:17.782Z,95504.67
2018-04-06T06:55:21.046Z,95503.91
2018-04-06T06:58:24.327Z,95514.70
2018-04-06T07:01:27.691Z,95519.19
2018-04-06T07:04:31.712Z,95512.73
2018-04-06T07:07:35.866Z,95518.94
2018-04-06T07:10:39.126Z,95506.97
2018-04-06T07:13:42.601Z,95510.33
2018-04-06T07:16:48.582Z,95511.27
2018-04-06T07:19:52.586Z,95513.17
2018-04-06T07:22:55.936Z,95506.45
2018-04-06T07:25:59.198Z,95500.56
2018-04-06T07:29:03.265Z,95503.42
2018-04-06T07:32:06.614Z,95501.48
2018-04-06T07:35:09.980Z,95494.59
2018-04-06T07:38:13.242Z,95503.31
2018-04-06T07:41:16.537Z,95496.87
2018-04-06T07:44:19.814Z,95499.58
2018-04-06T07:47:24.239Z,95500.56
2018-04-06T07:50:28.245Z,95503.07
2018-04-06T07:53:32.469Z,95505.55
2018-04-06T07:56:36.481Z,95501.23
2018-04-06T07:59:40.498Z,95498.41
2018-04-06T08:02:44.657Z,95502.32
2018-04-06T08:05:47.969Z,95500.04
2018-04-06T08:08:51.246Z,95500.05
2018-04-06T08:11:54.778Z,95494.85
2018-04-06T08:14:58.032Z,95505.39
2018-04-06T08:18:01.281Z,95505.39
2018-04-06T08:21:05.299Z,95504.66
2018-04-06T08:24:08.558Z,95495.28
2018-04-06T08:27:11.926Z,95501.45
2018-04-06T08:30:16.083Z,95494.27
2018-04-06T08:33:20.033Z,95490.05
2018-04-06T08:36:23.373Z,95498.27
2018-04-06T08:39:27.142Z,95491.27
2018-04-06T08:42:30.774Z,95492.92
2018-04-06T08:45:35.047Z,95489.44
2018-04-06T08:48:38.413Z,95487.66
2018-04-06T08:51:41.792Z,95487.47
2018-04-06T08:54:45.405Z,95475.92
2018-04-06T08:57:48.619Z,95480.42
2018-04-06T09:00:52.198Z,95486.23
2018-04-06T09:03:55.802Z,95475.37
2018-04-06T09:06:59.130Z,95477.17
2018-04-06T09:10:02.401Z,95474.25
2018-04-06T09:13:06.003Z,95474.14
2018-04-06T09:16:10.037Z,95469.38
2018-04-06T09:19:13.295Z,95464.18
2018-04-06T09:22:17.335Z,95458.44
2018-04-06T09:25:20.887Z,95457.83
2018-04-06T09:28:24.336Z,95457.98
2018-04-06T09:31:27.546Z,95463.34
2018-04-06T09:34:30.843Z,95445.06
2018-04-06T09:37:35.119Z,95443.45
2018-04-06T09:40:38.633Z,95441.84
2018-04-06T09:43:41.908Z,95441.13
2018-04-06T09:46:45.166Z,95430.89
2018-04-06T09:49:48.494Z,95427.95
2018-04-06T09:52:51.775Z,95429.02
2018-04-06T09:55:55.048Z,95426.06
2018-04-06T09:58:58.433Z,95425.14
2018-04-06T10:02:07.362Z,95422.64
2018-04-06T10:05:12.295Z,95420.76
2018-04-06T10:08:15.600Z,95421.67
2018-04-06T10:11:18.874Z,95415.66
2018-04-06T10:14:22.138Z,95403.28
2018-04-06T10:17:25.457Z,95400.31
2018-04-06T10:20:29.572Z,95400.47
2018-04-06T10:23:53.689Z,95392.70
2018-04-06T10:26:58.241Z,95390.93
2018-04-06T10:30:01.518Z,95389.73
2018-04-06T10:33:05.624Z,95386.95
2018-04-06T10:36:10.012Z,95385.80
2018-04-06T10:39:13.701Z,95376.98
2018-04-06T10:42:16.979Z,95372.77
2018-04-06T10:45:20.275Z,95369.46
2018-04-06T10:48:23.534Z,95367.13
2018-04-06T10:51:26.899Z,95364.88
2018-04-06T10:54:30.155Z,95354.94
2018-04-06T10:57:34.257Z,95354.05
2018-04-06T11:00:38.591Z,95348.09
2018-04-06T11:03:42.627Z,95339.81
2018-04-06T11:06:45.934Z,95345.02
2018-04-06T11:09:49.240Z,95339.44
2018-04-06T11:12:52.491Z,95336.94
2018-04-06T11:15:56.540Z,95329.37
2018-04-06T11:18:59.803Z,95328.05
2018-04-06T11:22:03.855Z,95327.92
2018-04-06T11:25:07.194Z,95326.63
2018-04-06T11:28:10.485Z,95322.58
2018-04-06T11:31:13.816Z,95315.12
2018-04-06T11:34:17.935Z,95321.97
2018-04-06T11:37:21.259Z,95314.11
2018-04-06T11:40:24.847Z,95310.57
2018-04-06T11:43:28.207Z,95311.81
2018-04-06T11:46:31.472Z,95317.07
2018-04-06T11:49:34.869Z,95303.78
2018-04-06T11:52:38.172Z,95311.29
2018-04-06T11:55:51.476Z,95301.45
2018-04-06T11:59:00.008Z,95300.14
2018-04-06T12:02:03.659Z,95302.67
2018-04-06T12:05:14.206Z,95290.23
2018-04-06T12:08:17.708Z,95286.34
2018-04-06T12:11:21.023Z,95277.84
2018-04-06T12:14:24.390Z,95279.86
2018-04-06T12:17:27.654Z,95271.11
2018-04-06T12:20:31.155Z,95273.41
2018-04-06T12:23:34.463Z,95261.91
2018-04-06T12:26:38.155Z,95257.97
2018-04-06T12:29:42.197Z,95254.03
2018-04-06T12:32:45.444Z,95246.41
2018-04-06T12:35:48.716Z,95253.57
2018-04-06T12:38:52.158Z,95253.30
2018-04-06T12:41:56.166Z,95238.36
2018-04-06T12:44:59.460Z,95247.89
2018-04-06T12:48:02.748Z,95231.41
2018-04-06T12:51:06.008Z,95221.32
2018-04-06T12:54:09.270Z,95232.21
2018-04-06T12:57:13.290Z,95208.71
2018-04-06T13:00:17.320Z,95215.21
2018-04-06T13:03:20.594Z,95216.92
2018-04-06T13:06:24.615Z,95204.10
2018-04-06T13:09:29.381Z,95208.59
2018-04-06T13:12:32.633Z,95201.84
2018-04-06T13:15:36.664Z,95196.90
2018-04-06T13:18:39.947Z,95199.37
2018-04-06T13:21:43.962Z,95195.62
2018-04-06T13:24:47.428Z,95188.86
2018-04-06T13:27:55.972Z,95184.57
2018-04-06T13:31:00.378Z,95175.84
2018-04-06T13:34:03.749Z,95180.02
2018-04-06T13:37:07.166Z,95166.30
2018-04-06T13:40:10.593Z,95167.83
2018-04-06T13:43:14.059Z,95161.80
2018-04-06T13:46:17.357Z,95160.52
2018-04-06T13:49:20.652Z,95155.42
2018-04-06T13:52:24.233Z,95157.27
2018-04-06T13:55:27.538Z,95148.11
2018-04-06T13:58:31.642Z,95150.42
2018-04-06T14:01:35.702Z,95154.50
2018-04-06T14:04:39.024Z,95153.20
2018-04-06T14:07:42.764Z,95143.47
2018-04-06T14:10:46.863Z,95137.24
2018-04-06T14:13:50.297Z,95142.20
2018-04-06T14:16:54.408Z,95144.66
2018-04-06T14:19:59.136Z,95150.09
2018-04-06T14:23:03.323Z,95143.70
2018-04-06T14:26:07.005Z,95139.42
2018-04-06T14:29:10.317Z,95136.41
2018-04-06T14:32:13.883Z,95139.38
2018-04-06T14:35:17.151Z,95142.57
2018-04-06T14:38:20.429Z,95135.09
2018-04-06T14:41:23.703Z,95131.44
2018-04-06T14:44:27.013Z,95139.05
2018-04-06T14:47:30.274Z,95134.33
2018-04-06T14:50:33.543Z,95142.52
2018-04-06T14:53:36.884Z,95133.01
2018-04-06T14:56:40.223Z,95128.88
2018-04-06T14:59:43.855Z,95131.23
2018-04-06T15:02:47.898Z,95135.22
2018-04-06T15:05:51.342Z,95131.64
2018-04-06T15:08:54.630Z,95130.13
2018-04-06T15:11:57.950Z,95123.86
2018-04-06T15:15:02.246Z,95129.33
2018-04-06T15:18:05.620Z,95124.25
2018-04-06T15:21:08.915Z,95110.25
2018-04-06T15:24:12.253Z,95115.99
2018-04-06T15:27:15.527Z,95113.92
2018-04-06T15:30:18.866Z,95110.78
2018-04-06T15:33:22.914Z,95118.84
2018-04-06T15:36:26.830Z,95114.23
2018-04-06T15:39:30.192Z,95110.06
2018-04-06T15:42:34.365Z,95107.20
2018-04-06T15:45:37.655Z,95103.17
2018-04-06T15:48:40.998Z,95108.84
2018-04-06T15:51:44.265Z,95113.19
2018-04-06T15:54:47.795Z,95105.72
2018-04-06T15:57:51.120Z,95107.58
2018-04-06T16:00:54.523Z,95110.92
2018-04-06T16:03:57.933Z,95104.38
2018-04-06T16:07:01.191Z,95108.95
2018-04-06T16:10:04.506Z,95101.84
2018-04-06T16:13:07.787Z,95108.50
2018-04-06T16:16:12.069Z,95104.97
2018-04-06T16:19:15.497Z,95106.63
2018-04-06T16:22:18.775Z,95108.31
2018-04-06T16:25:22.132Z,95106.31
2018-04-06T16:28:26.271Z,95101.75
2018-04-06T16:31:29.731Z,95103.38
2018-04-06T16:34:33.024Z,95104.53
2018-04-06T16:37:36.455Z,95101.11
2018-04-06T16:40:39.768Z,95102.07
2018-04-06T16:43:43.147Z,95103.97
2018-04-06T16:46:47.238Z,95102.15
2018-04-06T16:49:50.803Z,95099.75
2018-04-06T16:52:54.099Z,95100.89
2018-04-06T16:55:57.742Z,95095.50
2018-04-06T16:59:01.180Z,95104.12
2018-04-06T17:02:05.232Z,95103.00
2018-04-06T17:05:08.518Z,95113.64
2018-04-06T17:08:11.881Z,95110.83
2018-04-06T17:11:16.022Z,95113.63
2018-04-06T17:14:19.308Z,95117.73
2018-04-06T17:17:23.849Z,95118.94
2018-04-06T17:20:27.129Z,95109.06
2018-04-06T17:23:31.191Z,95119.08
2018-04-06T17:26:34.460Z,95115.02
2018-04-06T17:29:37.747Z,95114.91
2018-04-06T17:32:41.784Z,95112.16
2018-04-06T17:35:45.131Z,95108.78
2018-04-06T17:38:48.426Z,95111.22
2018-04-06T17:41:52.785Z,95117.20
2018-04-06T17:44:56.151Z,95119.06
2018-04-06T17:47:59.413Z,95114.13
2018-04-06T17:51:02.692Z,95119.52
2018-04-06T17:54:05.957Z,95123.00
2018-04-06T17:57:09.228Z,95121.56
2018-04-06T18:00:12.511Z,95124.03
2018-04-06T18:03:15.766Z,95120.09
2018-04-06T18:06:20.054Z,95119.91
2018-04-06T18:09:24.090Z,95116.85
2018-04-06T18:12:28.243Z,95128.55
2018-04-06T18:15:31.517Z,95132.26
2018-04-06T18:18:35.569Z,95134.46
2018-04-06T18:21:38.836Z,95141.82
2018-04-06T18:24:42.132Z,95146.34
2018-04-06T18:27:46.263Z,95140.59
2018-04-06T18:30:50.383Z,95142.47
2018-04-06T18:33:53.619Z,95140.13
2018-04-06T18:36:56.876Z,95142.31
2018-04-06T18:40:00.119Z,95148.06
2018-04-06T18:43:03.367Z,95152.36
2018-04-06T18:46:06.865Z,95150.27
2018-04-06T18:49:10.155Z,95151.65
2018-04-06T18:52:13.551Z,95154.22
2018-04-06T18:55:18.415Z,95154.05
2018-04-06T18:58:21.666Z,95148.36
2018-04-06T19:01:24.933Z,95149.75
2018-04-06T19:04:28.208Z,95139.78
2018-04-06T19:07:31.705Z,95144.59
2018-04-06T19:10:34.959Z,95139.79
2018-04-06T19:13:38.974Z,95140.58
2018-04-06T19:16:42.995Z,95138.77
2018-04-06T19:19:47.050Z,95145.69
2018-04-06T19:22:50.480Z,95139.88
2018-04-06T19:25:53.727Z,95132.84
2018-04-06T19:28:56.995Z,95129.63
2018-04-06T19:32:00.713Z,95128.55
2018-04-06T19:35:04.739Z,95117.64
2018-04-06T19:38:08.128Z,95121.52
2018-04-06T19:41:12.276Z,95117.84
2018-04-06T19:44:15.763Z,95120.24
2018-04-06T19:47:19.012Z,95117.36
2018-04-06T19:50:22.297Z,95116.10
2018-04-06T19:53:26.375Z,95116.58
2018-04-06T19:56:29.616Z,95114.23
2018-04-06T19:59:32.880Z,95115.17
2018-04-06T20:02:36.124Z,95106.95
2018-04-06T20:05:39.374Z,95100.94
2018-04-06T20:08:42.627Z,95102.89
2018-04-06T20:11:45.882Z,95097.64
2018-04-06T20:14:49.160Z,95099.17
2018-04-06T20:17:52.426Z,95090.70
2018-04-06T20:20:55.675Z,95091.89
2018-04-06T20:23:58.950Z,95087.38
2018-04-06T20:27:02.242Z,95085.82
2018-04-06T20:30:05.512Z,95083.57
2018-04-06T20:33:08.784Z,95079.52
2018-04-06T20:36:12.032Z,95078.92
2018-04-06T20:39:17.376Z,95075.98
2018-04-06T20:42:21.458Z,95070.61
2018-04-06T20:45:24.711Z,95074.12
2018-04-06T20:48:27.998Z,95071.83
2018-04-06T20:51:31.243Z,95070.70
2018-04-06T20:54:34.559Z,95063.25
2018-04-06T20:57:37.851Z,95066.45
2018-04-06T21:00:41.124Z,95067.13
2018-04-06T21:03:45.030Z,95059.93
2018-04-06T21:06:48.333Z,95051.72
2018-04-06T21:09:51.602Z,95050.75
2018-04-06T21:12:54.972Z,95041.79
2018-04-06T21:16:01.436Z,95039.93
2018-04-06T21:19:05.251Z,95041.13
2018-04-06T21:22:09.279Z,95036.00
2018-04-06T21:25:18.560Z,95034.05
2018-04-06T21:28:22.430Z,95036.34
2018-04-06T21:31:26.448Z,95033.73
2018-04-06T21:34:29.703Z,95041.58
2018-04-06T21:37:32.970Z,95032.52
2018-04-06T21:40:36.489Z,95030.81
2018-04-06T21:43:40.703Z,95024.17
2018-04-06T21:46:43.944Z,95025.48
2018-04-06T21:49:48.119Z,95028.73
2018-04-06T21:52:52.390Z,95015.38
2018-04-06T21:56:02.106Z,95015.90
2018-04-06T21:59:11.606Z,95015.53
2018-04-06T22:02:15.018Z,95015.19
2018-04-06T22:05:18.334Z,95011.63
2018-04-06T22:08:21.615Z,95011.28
2018-04-06T22:11:24.888Z,95010.67
2018-04-06T22:14:28.199Z,95005.56
2018-04-06T22:17:31.485Z,95006.72
2018-04-06T22:20:37.363Z,95006.02
2018-04-06T22:23:41.091Z,95002.69
2018-04-06T22:26:44.394Z,95005.30
2018-04-06T22:29:47.692Z,95003.63
2018-04-06T22:32:51.773Z,94998.34
2018-04-06T22:35:55.420Z,94990.97
2018-04-06T22:39:00.248Z,94990.83
2018-04-06T22:42:04.812Z,94995.31
2018-04-06T22:45:08.068Z,94994.23
2018-04-06T22:48:11.324Z,94990.03
2018-04-06T22:51:16.406Z,94992.09
2018-04-06T22:54:19.654Z,94986.03
2018-04-06T22:57:23.771Z,94992.21
2018-04-06T23:00:27.796Z,94979.89
2018-04-06T23:03:31.850Z,94979.28
2018-04-06T23:06:35.098Z,94978.50
2018-04-06T23:09:39.117Z,94968.69
2018-04-06T23:12:43.133Z,94972.27
2018-04-06T23:15:47.254Z,94966.38
2018-04-06T23:18:50.519Z,94964.05
2018-04-06T23:22:02.439Z,94966.38
2018-04-06T23:25:06.125Z,94961.72
2018-04-06T23:28:10.168Z,94954.33
2018-04-06T23:31:14.195Z,94956.47
2018-04-06T23:34:17.450Z,94953.60
2018-04-06T23:37:20.703Z,94944.50
2018-04-06T23:40:23.947Z,94949.61
2018-04-06T23:43:27.313Z,94949.22
2018-04-06T23:46:30.571Z,94939.43
2018-04-06T23:49:34.603Z,94942.84
2018-04-06T23:52:37.878Z,94943.13
2018-04-06T23:55:41.148Z,94944.83
2018-04-06T23:58:44.464Z,94943.69
